Time;durP1;ratioP1;P1;durP2;ratioP2;P2;SDS_P1;SDS_P2;PMS_P1;PMS_P2;Temp;Humidity;BMP_temperature;BMP_pressure;BME280_temperature;BME280_humidity;BME280_pressure;Samples;Min_cycle;Max_cycle;Signal;HPM_P1;HPM_P2
2022/04/20 00:00:43;;;;;;;;;24.75;22.50;;;;;12.43;59.11;100624.25;4969579;28;45401;-55
2022/04/20 00:03:09;;;;;;;;;25.25;22.00;;;;;12.33;59.16;100615.97;4974023;28;45571;-55
2022/04/20 00:05:35;;;;;;;;;24.50;23.50;;;;;12.21;58.73;100609.59;4975715;28;45343;-53
2022/04/20 00:08:01;;;;;;;;;25.25;24.25;;;;;12.10;60.40;100610.25;4971954;28;46007;-51
2022/04/20 00:10:30;;;;;;;;;30.00;26.75;;;;;12.13;59.89;100614.56;4975065;28;45382;-55
2022/04/20 00:12:56;;;;;;;;;29.00;24.75;;;;;12.00;60.45;100598.47;4965363;28;45477;-56
2022/04/20 00:15:22;;;;;;;;;31.75;21.25;;;;;11.96;59.80;100586.25;5009821;28;45380;-53
2022/04/20 00:17:47;;;;;;;;;31.25;26.25;;;;;12.01;60.23;100600.19;5011585;28;45595;-57
2022/04/20 00:20:15;;;;;;;;;26.50;24.00;;;;;12.15;60.01;100615.31;4979012;27;45449;-56
2022/04/20 00:22:41;;;;;;;;;29.75;26.50;;;;;12.11;59.62;100600.47;4956519;28;45546;-54
2022/04/20 00:25:07;;;;;;;;;31.25;24.75;;;;;12.19;59.58;100603.50;4973975;28;45219;-53
2022/04/20 00:27:37;;;;;;;;;30.00;24.50;;;;;12.18;59.73;100606.28;4961575;28;45571;-54
2022/04/20 00:30:06;;;;;;;;;23.25;19.25;;;;;12.13;59.85;100603.03;4957055;28;45497;-52
2022/04/20 00:32:32;;;;;;;;;32.50;25.75;;;;;12.07;60.43;100598.94;4960187;28;45476;-53
2022/04/20 00:34:57;;;;;;;;;24.50;21.00;;;;;12.14;60.01;100610.94;4975201;27;45539;-55
2022/04/20 00:37:23;;;;;;;;;30.50;27.00;;;;;12.21;60.43;100606.06;4974792;27;45366;-56
2022/04/20 00:39:49;;;;;;;;;33.00;25.00;;;;;12.18;59.91;100596.47;4967941;28;45504;-54
2022/04/20 00:42:15;;;;;;;;;27.50;27.50;;;;;12.19;60.28;100599.97;4969483;28;45346;-56
2022/04/20 00:44:41;;;;;;;;;38.00;31.50;;;;;12.16;59.92;100598.38;4970421;28;45664;-54
2022/04/20 00:47:07;;;;;;;;;33.00;29.00;;;;;12.19;60.00;100606.16;4973394;28;46219;-55
2022/04/20 00:49:36;;;;;;;;;33.25;30.50;;;;;12.17;60.06;100604.56;4974175;28;45464;-55
2022/04/20 00:52:03;;;;;;;;;30.50;29.50;;;;;12.14;60.65;100600.28;4974486;28;45470;-58
2022/04/20 00:54:30;;;;;;;;;26.00;23.75;;;;;11.97;61.30;100598.63;4968001;27;45588;-55
2022/04/20 00:56:55;;;;;;;;;31.75;25.25;;;;;11.93;62.01;100601.59;5003151;28;45526;-55
2022/04/20 00:59:28;;;;;;;;;30.25;27.75;;;;;11.85;61.29;100591.44;4974523;27;45421;-55
2022/04/20 01:01:53;;;;;;;;;31.50;30.50;;;;;11.92;61.64;100599.88;4974537;28;45716;-56
2022/04/20 01:04:19;;;;;;;;;34.00;29.50;;;;;11.78;61.83;100590.03;4975873;28;45211;-53
2022/04/20 01:06:45;;;;;;;;;29.50;27.00;;;;;11.68;62.54;100587.06;4960995;28;45261;-55
2022/04/20 01:09:11;;;;;;;;;37.00;30.75;;;;;11.67;62.30;100585.34;4963983;28;45436;-54
2022/04/20 01:11:36;;;;;;;;;27.25;25.75;;;;;11.65;63.05;100594.41;4969892;28;45301;-55
2022/04/20 01:14:02;;;;;;;;;31.00;31.00;;;;;11.70;62.75;100589.63;4987645;28;45610;-52
2022/04/20 01:16:27;;;;;;;;;31.00;25.75;;;;;11.50;62.68;100564.22;4982291;28;46188;-55
2022/04/20 01:18:53;;;;;;;;;38.75;33.25;;;;;11.69;62.72;100586.13;5007363;28;46103;-55
2022/04/20 01:21:19;;;;;;;;;34.75;28.75;;;;;11.64;62.15;100577.56;4961002;28;45592;-56
2022/04/20 01:23:45;;;;;;;;;35.50;32.25;;;;;11.74;62.04;100586.72;4969931;28;45498;-54
2022/04/20 01:26:11;;;;;;;;;44.25;38.75;;;;;11.73;62.06;100574.34;4963152;28;46163;-55
2022/04/20 01:28:43;;;;;;;;;44.25;36.00;;;;;11.69;62.08;100588.78;4970563;28;45361;-54
2022/04/20 01:31:12;;;;;;;;;42.75;36.00;;;;;11.65;62.55;100586.41;4973368;28;45431;-59
2022/04/20 01:33:38;;;;;;;;;45.50;39.00;;;;;11.58;63.16;100585.91;4974571;28;45397;-60
2022/04/20 01:36:03;;;;;;;;;49.25;39.50;;;;;11.54;62.82;100573.72;4966390;28;45987;-54
2022/04/20 01:38:29;;;;;;;;;51.75;42.50;;;;;11.63;62.84;100581.19;4957455;28;45345;-55
2022/04/20 01:40:54;;;;;;;;;46.50;39.75;;;;;11.58;62.53;100583.25;4964821;28;45775;-56
2022/04/20 01:43:20;;;;;;;;;50.50;43.75;;;;;11.60;62.30;100581.38;4959856;28;45436;-55
2022/04/20 01:45:45;;;;;;;;;41.75;36.50;;;;;11.53;62.92;100588.00;4943390;28;47910;-54
2022/04/20 01:48:11;;;;;;;;;45.25;37.50;;;;;11.57;62.47;100588.66;4973648;28;45414;-56
2022/04/20 01:51:46;;;;;;;;;48.75;37.75;;;;;11.55;62.60;100578.09;4973145;28;45516;-55
2022/04/20 01:53:25;;;;;;;;;48.75;38.75;;;;;11.61;62.81;100585.75;4956876;28;45465;-57
2022/04/20 01:55:50;;;;;;;;;43.50;35.25;;;;;11.53;62.72;100577.34;4965047;28;45524;-57
2022/04/20 01:58:16;;;;;;;;;40.50;37.50;;;;;11.65;62.24;100584.59;4977654;27;45540;-54
2022/04/20 02:00:41;;;;;;;;;51.25;38.50;;;;;11.66;61.59;100591.63;4958646;28;47097;-54
2022/04/20 02:03:07;;;;;;;;;38.75;36.25;;;;;11.57;61.86;100584.19;4966546;27;45327;-55
2022/04/20 02:05:32;;;;;;;;;45.25;37.00;;;;;11.59;62.76;100587.66;4973810;28;47709;-53
2022/04/20 02:07:58;;;;;;;;;46.75;38.25;;;;;11.45;63.51;100580.47;4973160;28;45494;-54
2022/04/20 02:10:24;;;;;;;;;37.50;34.50;;;;;11.48;62.66;100582.09;4965176;28;45549;-55
2022/04/20 02:12:50;;;;;;;;;42.50;35.50;;;;;11.50;62.23;100585.53;4960484;28;45345;-56
2022/04/20 02:15:15;;;;;;;;;38.50;31.00;;;;;11.56;62.71;100585.16;5042776;28;46049;-55
2022/04/20 02:17:41;;;;;;;;;43.00;38.50;;;;;11.47;62.31;100578.59;4972640;28;45324;-55
2022/04/20 02:20:07;;;;;;;;;50.50;42.75;;;;;11.40;63.29;100576.38;4972244;28;45239;-52
2022/04/20 02:22:33;;;;;;;;;47.50;36.50;;;;;11.37;63.16;100573.91;4973916;28;45527;-53
2022/04/20 02:24:59;;;;;;;;;47.00;39.50;;;;;11.41;63.24;100572.75;4960470;28;45504;-53
2022/04/20 02:27:28;;;;;;;;;57.00;40.75;;;;;11.41;63.02;100565.63;4960025;28;45421;-53
2022/04/20 02:29:53;;;;;;;;;45.00;40.25;;;;;11.39;63.04;100554.22;4961503;28;45344;-54
2022/04/20 02:32:19;;;;;;;;;42.50;34.50;;;;;11.40;64.00;100561.25;4968864;28;45582;-55
2022/04/20 02:34:44;;;;;;;;;49.25;40.50;;;;;11.20;63.12;100538.50;4971932;28;46778;-57
2022/04/20 02:37:10;;;;;;;;;45.50;39.50;;;;;11.33;64.05;100545.72;4971041;28;45422;-54
2022/04/20 02:39:36;;;;;;;;;49.50;42.50;;;;;11.28;64.08;100558.47;4972881;28;45458;-56
2022/04/20 02:42:04;;;;;;;;;43.00;38.50;;;;;11.14;64.36;100544.16;4970538;28;45558;-55
2022/04/20 02:44:29;;;;;;;;;52.75;42.75;;;;;11.24;63.29;100547.16;4971947;28;45556;-54
2022/04/20 02:46:55;;;;;;;;;43.25;38.75;;;;;11.30;63.71;100548.56;4966759;28;45300;-54
2022/04/20 02:49:21;;;;;;;;;45.00;38.50;;;;;11.23;64.02;100546.28;4965136;28;45864;-55
2022/04/20 02:51:47;;;;;;;;;50.25;42.50;;;;;11.25;63.44;100546.19;4972679;28;45609;-53
2022/04/20 02:54:12;;;;;;;;;45.25;39.50;;;;;11.13;64.71;100541.59;4973422;28;45387;-53
2022/04/20 02:56:38;;;;;;;;;47.75;40.75;;;;;11.07;65.06;100542.81;4972015;28;45512;-56
2022/04/20 02:59:03;;;;;;;;;50.75;44.25;;;;;10.95;64.97;100530.25;4970754;28;45503;-52
2022/04/20 03:01:30;;;;;;;;;48.50;42.25;;;;;10.84;65.35;100535.31;4968034;28;45513;-55
2022/04/20 03:03:56;;;;;;;;;56.25;41.25;;;;;10.82;65.75;100539.88;4967754;28;46637;-54
2022/04/20 03:06:22;;;;;;;;;58.00;47.75;;;;;10.74;66.04;100528.81;4967498;28;45460;-56
2022/04/20 03:08:47;;;;;;;;;58.50;44.75;;;;;10.62;66.37;100520.59;4962896;28;45623;-53
2022/04/20 03:11:13;;;;;;;;;46.00;40.75;;;;;10.66;66.13;100523.91;4963236;28;45358;-55
2022/04/20 03:13:38;;;;;;;;;60.50;45.00;;;;;10.71;66.33;100526.34;4975546;28;45417;-55
2022/04/20 03:16:04;;;;;;;;;51.50;41.00;;;;;10.65;66.01;100524.88;4968340;28;45354;-56
2022/04/20 03:18:32;;;;;;;;;66.50;48.50;;;;;10.61;66.30;100518.88;4974828;27;45519;-55
2022/04/20 03:20:59;;;;;;;;;59.25;47.50;;;;;10.60;65.91;100527.81;4976574;28;45754;-52
2022/04/20 03:23:24;;;;;;;;;58.00;47.25;;;;;10.61;66.47;100531.31;4975864;27;45531;-55
2022/04/20 03:25:50;;;;;;;;;60.25;49.75;;;;;10.53;66.63;100525.56;4962738;28;45553;-52
2022/04/20 03:28:15;;;;;;;;;57.25;48.75;;;;;10.47;66.42;100529.44;4970635;28;45604;-52
2022/04/20 03:30:41;;;;;;;;;56.25;45.75;;;;;10.50;66.73;100531.06;4967749;28;45490;-54
2022/04/20 03:33:08;;;;;;;;;60.75;46.50;;;;;10.59;66.62;100536.72;4975332;28;46979;-54
2022/04/20 03:35:35;;;;;;;;;50.50;43.50;;;;;10.60;66.67;100543.75;4966994;27;45544;-55
2022/04/20 03:38:01;;;;;;;;;60.75;48.00;;;;;10.49;66.01;100534.66;4957492;28;45323;-54
2022/04/20 03:40:27;;;;;;;;;62.00;47.75;;;;;10.63;65.51;100548.91;4975999;28;45326;-53
2022/04/20 03:42:52;;;;;;;;;59.00;48.00;;;;;10.74;64.78;100550.94;4975739;28;45337;-51
2022/04/20 03:45:18;;;;;;;;;63.25;47.00;;;;;10.78;65.61;100556.94;4974528;28;45180;-55
2022/04/20 03:47:43;;;;;;;;;61.75;47.00;;;;;10.70;65.68;100549.41;4972565;28;45535;-54
2022/04/20 03:50:09;;;;;;;;;68.75;48.75;;;;;10.67;65.72;100554.03;4975538;28;45499;-56
2022/04/20 03:52:38;;;;;;;;;57.25;46.25;;;;;10.72;65.47;100552.84;4973137;28;45608;-55
2022/04/20 03:55:04;;;;;;;;;52.75;41.50;;;;;10.77;65.79;100555.22;4970261;28;45447;-57
2022/04/20 03:57:29;;;;;;;;;58.50;48.50;;;;;10.83;64.61;100560.22;4973568;28;45560;-52
2022/04/20 03:59:54;;;;;;;;;60.50;48.50;;;;;10.89;64.55;100557.19;4976111;28;45311;-52
2022/04/20 04:02:20;;;;;;;;;65.75;46.50;;;;;10.94;64.56;100568.44;4969879;28;45667;-56
2022/04/20 04:04:45;;;;;;;;;58.25;46.50;;;;;10.98;64.42;100571.78;4971172;28;45442;-54
2022/04/20 04:07:11;;;;;;;;;57.25;48.25;;;;;11.02;64.58;100570.63;4966696;28;45301;-56
2022/04/20 04:09:38;;;;;;;;;64.75;47.25;;;;;11.04;64.29;100558.94;4969041;28;45264;-54
2022/04/20 04:12:05;;;;;;;;;53.25;46.75;;;;;10.96;64.82;100553.25;4975121;28;47146;-57
2022/04/20 04:14:30;;;;;;;;;60.25;48.00;;;;;10.90;64.89;100548.25;5003126;28;45534;-57
2022/04/20 04:16:56;;;;;;;;;59.75;48.50;;;;;10.88;64.36;100555.47;4974952;28;45856;-55
2022/04/20 04:19:21;;;;;;;;;62.00;52.00;;;;;10.78;64.69;100527.69;4967174;27;45851;-55
2022/04/20 04:21:47;;;;;;;;;62.75;47.50;;;;;10.85;65.13;100545.00;4972014;28;45989;-60
2022/04/20 04:24:34;;;;;;;;;67.00;53.00;;;;;10.76;65.00;100532.22;4969368;28;45546;-54
2022/04/20 04:26:59;;;;;;;;;63.75;50.00;;;;;10.78;65.52;100540.97;5016181;28;45452;-53
2022/04/20 04:29:28;;;;;;;;;62.00;49.00;;;;;10.76;65.39;100551.72;4971305;27;46672;-55
2022/04/20 04:31:54;;;;;;;;;63.50;50.50;;;;;10.85;65.45;100556.50;4990454;28;45447;-55
2022/04/20 04:34:20;;;;;;;;;69.00;50.50;;;;;10.78;65.29;100556.94;4959720;28;45172;-54
2022/04/20 04:36:45;;;;;;;;;66.00;49.75;;;;;10.71;66.08;100555.59;4957868;28;45455;-54
2022/04/20 04:39:10;;;;;;;;;55.50;45.50;;;;;10.70;66.04;100559.19;4964722;28;45588;-53
2022/04/20 04:41:36;;;;;;;;;65.75;52.50;;;;;10.71;65.72;100558.25;4974863;28;45602;-54
2022/04/20 04:44:02;;;;;;;;;68.25;50.00;;;;;10.73;65.20;100553.69;4985917;28;45362;-54
2022/04/20 04:49:11;;;;;;;;;64.75;53.25;;;;;10.68;65.22;100547.75;5014980;28;45458;-55
2022/04/20 04:51:37;;;;;;;;;65.50;53.25;;;;;10.67;65.08;100562.88;4975401;27;45429;-56
2022/04/20 04:54:03;;;;;;;;;66.50;51.50;;;;;10.65;64.26;100562.09;4976444;28;45778;-56
2022/04/20 04:56:28;;;;;;;;;65.00;52.00;;;;;10.75;65.29;100573.09;4974973;28;45776;-55
2022/04/20 04:58:54;;;;;;;;;64.25;52.25;;;;;10.76;64.78;100585.44;4975403;28;45615;-56
2022/04/20 05:01:19;;;;;;;;;66.25;51.50;;;;;10.77;65.15;100569.38;4972292;28;45542;-55
2022/04/20 05:03:45;;;;;;;;;66.75;51.25;;;;;10.76;65.01;100564.16;4974234;28;45451;-55
2022/04/20 05:06:10;;;;;;;;;69.00;53.25;;;;;10.81;65.51;100572.75;4985494;27;45336;-54
2022/04/20 05:08:36;;;;;;;;;67.75;53.75;;;;;10.83;64.78;100576.19;5069646;27;45424;-53
2022/04/20 05:11:04;;;;;;;;;67.00;50.75;;;;;10.82;64.62;100564.69;4975512;27;46121;-55
2022/04/20 05:13:29;;;;;;;;;61.50;50.00;;;;;10.87;64.36;100569.72;4975399;28;45354;-53
2022/04/20 05:15:55;;;;;;;;;65.00;50.25;;;;;10.90;64.15;100577.53;4982840;27;45234;-56
2022/04/20 05:18:20;;;;;;;;;69.75;52.25;;;;;10.98;64.34;100569.97;4958595;28;45260;-52
2022/04/20 05:20:45;;;;;;;;;69.75;53.00;;;;;10.92;64.69;100559.66;5009700;28;46046;-55
2022/04/20 05:23:11;;;;;;;;;64.75;53.00;;;;;10.94;64.92;100568.44;4994801;28;45385;-54
2022/04/20 05:25:36;;;;;;;;;59.00;50.00;;;;;10.95;64.76;100563.97;5041166;28;45482;-54
2022/04/20 05:28:02;;;;;;;;;64.25;50.75;;;;;11.10;64.27;100568.41;5039500;27;45513;-55
2022/04/20 05:30:28;;;;;;;;;72.00;54.25;;;;;11.14;63.47;100570.78;4989533;28;46329;-54
2022/04/20 05:32:54;;;;;;;;;63.75;48.50;;;;;11.06;64.47;100567.69;4975784;28;45869;-52
2022/04/20 05:35:19;;;;;;;;;61.00;50.75;;;;;11.04;63.30;100564.28;4974641;28;45831;-56
2022/04/20 05:43:12;;;;;;;;;64.75;50.00;;;;;11.17;62.88;100580.38;4970967;28;45432;-54
2022/04/20 05:45:38;;;;;;;;;69.75;51.50;;;;;11.10;63.09;100574.56;4972066;28;45451;-54
2022/04/20 05:48:04;;;;;;;;;64.75;53.25;;;;;11.16;62.93;100576.88;4961046;28;45527;-58
2022/04/20 05:50:29;;;;;;;;;64.00;52.50;;;;;11.35;62.84;100589.97;4964298;28;46120;-56
2022/04/20 05:52:55;;;;;;;;;64.25;51.25;;;;;11.43;62.33;100587.69;4957884;28;45351;-55
2022/04/20 05:55:21;;;;;;;;;61.25;50.75;;;;;11.51;62.10;100592.56;4960962;28;45491;-57
2022/04/20 05:57:49;;;;;;;;;71.25;52.75;;;;;11.58;62.05;100585.06;4957697;28;45398;-55
2022/04/20 06:00:15;;;;;;;;;67.75;52.00;;;;;11.63;61.60;100578.50;4962998;28;45509;-58
2022/04/20 06:02:42;;;;;;;;;71.25;55.25;;;;;11.59;61.18;100579.66;4973961;28;45382;-57
2022/04/20 06:05:08;;;;;;;;;64.75;49.25;;;;;11.62;61.14;100574.13;4956759;28;45473;-54
2022/04/20 06:07:34;;;;;;;;;60.50;49.75;;;;;11.67;61.62;100574.69;4956494;28;45826;-54
2022/04/20 06:09:59;;;;;;;;;73.50;58.25;;;;;11.76;60.52;100566.16;4954654;28;45398;-58
2022/04/20 06:12:25;;;;;;;;;61.75;50.25;;;;;11.80;60.81;100551.72;5005034;28;45495;-54
2022/04/20 06:14:50;;;;;;;;;71.25;56.25;;;;;11.81;60.75;100547.25;5007882;28;45601;-54
2022/04/20 06:17:16;;;;;;;;;64.00;49.50;;;;;11.86;60.11;100562.97;4955629;28;45576;-59
2022/04/20 06:19:41;;;;;;;;;66.00;53.25;;;;;11.85;59.76;100571.88;4957380;28;45613;-57
2022/04/20 06:22:07;;;;;;;;;68.25;55.50;;;;;11.75;60.38;100567.13;4971624;28;45392;-57
2022/04/20 06:24:33;;;;;;;;;72.00;52.00;;;;;11.69;60.35;100572.78;4968394;28;45446;-55
2022/04/20 06:26:58;;;;;;;;;65.75;49.00;;;;;11.71;60.49;100570.88;4973216;28;45453;-56
2022/04/20 06:29:24;;;;;;;;;69.50;51.25;;;;;11.73;60.15;100579.69;4965425;27;46285;-55
2022/04/20 06:31:51;;;;;;;;;69.75;52.00;;;;;11.69;60.05;100577.28;4956995;28;45416;-56
2022/04/20 06:34:17;;;;;;;;;71.25;53.75;;;;;11.55;59.93;100558.59;4952542;28;45541;-55
2022/04/20 06:36:43;;;;;;;;;66.25;50.25;;;;;11.53;60.30;100564.88;4981312;28;45525;-56
2022/04/20 06:39:08;;;;;;;;;59.50;48.00;;;;;11.65;59.50;100570.44;4962431;28;46179;-56
2022/04/20 06:41:34;;;;;;;;;68.00;50.50;;;;;11.73;59.92;100569.03;4960903;28;45513;-59
2022/04/20 06:44:00;;;;;;;;;63.75;51.25;;;;;11.64;59.94;100550.91;4964514;28;45520;-55
2022/04/20 06:46:25;;;;;;;;;64.00;50.25;;;;;11.72;59.28;100548.66;4962828;28;45654;-54
2022/04/20 06:48:51;;;;;;;;;68.25;50.25;;;;;11.97;59.21;100563.13;4953474;28;45506;-56
2022/04/20 06:51:16;;;;;;;;;67.00;49.75;;;;;12.07;58.99;100564.28;4963050;28;45567;-55
2022/04/20 06:59:10;;;;;;;;;59.25;48.25;;;;;12.35;58.08;100561.56;4961853;28;45713;-54
2022/04/20 07:01:36;;;;;;;;;62.00;52.50;;;;;12.46;58.11;100565.38;4991505;28;45466;-57
2022/04/20 07:04:01;;;;;;;;;63.75;52.25;;;;;12.55;57.47;100564.78;4970833;28;45420;-55
2022/04/20 07:06:27;;;;;;;;;59.00;49.75;;;;;12.63;56.92;100570.47;4970151;27;45849;-57
2022/04/20 07:08:53;;;;;;;;;62.75;49.25;;;;;12.68;56.56;100574.56;4956479;28;46072;-56
2022/04/20 07:11:22;;;;;;;;;63.50;52.00;;;;;12.61;56.01;100559.91;4976460;27;45733;-55
2022/04/20 07:13:47;;;;;;;;;59.25;46.50;;;;;12.75;56.36;100577.69;5003037;27;45539;-54
2022/04/20 07:16:13;;;;;;;;;55.00;47.25;;;;;12.75;56.44;100563.47;4965253;28;45826;-56
2022/04/20 07:18:39;;;;;;;;;59.75;45.00;;;;;12.92;55.43;100571.25;4964100;28;45544;-56
2022/04/20 07:21:05;;;;;;;;;59.00;45.25;;;;;12.89;55.54;100556.31;4984401;28;46067;-55
2022/04/20 07:23:30;;;;;;;;;56.75;43.00;;;;;13.02;55.27;100563.47;4973936;27;45442;-57
2022/04/20 07:25:56;;;;;;;;;55.75;43.00;;;;;13.10;54.38;100563.81;4969933;28;45536;-56
2022/04/20 07:28:22;;;;;;;;;55.50;46.75;;;;;13.24;55.09;100571.78;4975715;28;45997;-56
2022/04/20 07:30:47;;;;;;;;;57.50;47.00;;;;;13.33;54.41;100576.53;4958044;28;45441;-56
2022/04/20 07:33:14;;;;;;;;;58.25;47.00;;;;;13.41;54.56;100576.88;4961704;28;45573;-56
2022/04/20 07:35:42;;;;;;;;;57.75;46.50;;;;;13.38;53.82;100569.03;4983750;28;45308;-55
2022/04/20 07:38:07;;;;;;;;;50.50;41.00;;;;;13.49;54.14;100576.31;4969833;28;45669;-56
2022/04/20 07:40:34;;;;;;;;;55.75;44.00;;;;;13.58;54.31;100579.22;4953012;28;45316;-57
2022/04/20 07:42:59;;;;;;;;;54.25;44.75;;;;;13.70;53.36;100579.34;4964536;28;45428;-58
2022/04/20 07:45:27;;;;;;;;;56.50;45.00;;;;;13.69;52.81;100558.94;4980936;27;45576;-56
2022/04/20 07:47:54;;;;;;;;;54.25;43.75;;;;;13.71;53.45;100555.19;4966551;28;46843;-56
2022/04/20 07:50:23;;;;;;;;;50.00;39.75;;;;;13.84;52.54;100569.41;4971035;28;45313;-57
2022/04/20 07:52:57;;;;;;;;;49.50;42.00;;;;;13.83;52.34;100574.88;4964230;28;45506;-57
2022/04/20 07:55:25;;;;;;;;;56.50;44.25;;;;;13.73;52.92;100576.47;4959801;28;45498;-57
2022/04/20 07:57:52;;;;;;;;;53.25;42.00;;;;;13.85;52.65;100578.28;4960937;28;45589;-57
2022/04/20 08:00:18;;;;;;;;;49.75;42.50;;;;;14.00;52.27;100577.19;4964134;28;45324;-57
2022/04/20 08:02:45;;;;;;;;;36.25;34.50;;;;;14.03;51.30;100582.31;4969210;28;45464;-56
2022/04/20 08:05:13;;;;;;;;;51.50;40.50;;;;;14.14;51.40;100581.56;4956470;28;45507;-57
2022/04/20 08:07:39;;;;;;;;;45.25;38.25;;;;;14.07;50.63;100562.44;4959107;28;45378;-59
2022/04/20 08:10:06;;;;;;;;;45.50;39.00;;;;;14.25;50.55;100580.81;4959748;28;45672;-57
2022/04/20 08:12:38;;;;;;;;;44.00;40.25;;;;;14.31;49.95;100575.00;4968571;28;45508;-59
2022/04/20 08:15:05;;;;;;;;;38.75;35.75;;;;;14.35;50.29;100571.16;4981782;28;45763;-57
2022/04/20 08:17:32;;;;;;;;;52.75;37.75;;;;;14.45;49.75;100569.56;4960578;28;45557;-58
2022/04/20 08:19:57;;;;;;;;;51.75;39.75;;;;;14.60;49.75;100567.59;4959092;28;45503;-56
2022/04/20 08:22:24;;;;;;;;;49.50;36.50;;;;;14.59;49.79;100558.72;4972738;28;45450;-57
2022/04/20 08:24:51;;;;;;;;;44.00;38.25;;;;;14.73;49.47;100565.75;4974276;28;45307;-57
2022/04/20 08:27:17;;;;;;;;;43.50;37.00;;;;;14.80;49.03;100569.66;4973638;28;45469;-56
2022/04/20 08:29:45;;;;;;;;;45.50;36.25;;;;;14.84;48.89;100578.31;4975386;28;45438;-57
2022/04/20 08:32:10;;;;;;;;;46.50;37.00;;;;;14.95;47.97;100573.88;4968954;28;45302;-57
2022/04/20 08:34:36;;;;;;;;;37.00;33.00;;;;;15.09;48.20;100554.09;4969596;28;45450;-57
2022/04/20 08:37:02;;;;;;;;;42.00;36.50;;;;;15.43;47.09;100567.59;4975030;28;45256;-58
2022/04/20 08:39:27;;;;;;;;;38.25;34.25;;;;;15.65;46.61;100565.03;4957869;28;45759;-55
2022/04/20 08:41:54;;;;;;;;;36.25;33.50;;;;;15.76;45.92;100554.31;4956669;28;45354;-57
2022/04/20 08:44:27;;;;;;;;;22.50;21.50;;;;;16.01;45.23;100566.63;4956157;28;45380;-57
2022/04/20 08:46:54;;;;;;;;;27.67;24.67;;;;;16.25;44.53;100562.97;4955603;28;45623;-57
2022/04/20 08:49:21;;;;;;;;;24.33;24.33;;;;;16.54;43.16;100572.25;4970501;28;45379;-56
2022/04/20 08:54:34;;;;;;;;;23.67;22.00;;;;;17.16;41.52;100565.34;4955514;28;45843;-56
2022/04/20 08:57:16;;;;;;;;;25.33;21.33;;;;;17.40;41.13;100565.97;4955443;28;46060;-57
2022/04/20 08:59:48;;;;;;;;;21.33;21.33;;;;;17.75;42.15;100575.59;4954563;28;45571;-60
2022/04/20 09:02:15;;;;;;;;;26.33;24.33;;;;;17.93;40.52;100549.75;4953681;28;45386;-57
2022/04/20 09:04:41;;;;;;;;;30.67;28.67;;;;;18.09;39.68;100544.72;4967114;28;45678;-56
2022/04/20 09:07:12;;;;;;;;;26.67;24.67;;;;;18.33;39.07;100552.47;4974740;28;45854;-57
2022/04/20 09:09:38;;;;;;;;;25.33;24.33;;;;;18.54;38.64;100530.88;4996498;28;45533;-57
2022/04/20 09:12:25;;;;;;;;;24.00;20.00;;;;;19.04;37.87;100563.16;4986078;27;45388;-56
2022/04/20 09:14:52;;;;;;;;;21.67;18.67;;;;;19.23;37.02;100556.91;4989406;28;45451;-58
2022/04/20 09:17:20;;;;;;;;;27.33;27.33;;;;;19.53;37.86;100558.56;4978798;27;45496;-57
2022/04/20 09:19:56;;;;;;;;;22.67;22.33;;;;;19.77;37.18;100567.09;4974098;27;45417;-60
2022/04/20 09:22:22;;;;;;;;;23.67;19.67;;;;;19.98;36.33;100564.19;4973411;28;45438;-57
2022/04/20 09:25:07;;;;;;;;;24.33;22.00;;;;;20.23;37.05;100562.69;4966805;28;45548;-57
2022/04/20 09:27:40;;;;;;;;;24.00;22.00;;;;;20.40;36.72;100539.44;4957560;28;45458;-58
2022/04/20 09:30:12;;;;;;;;;24.67;20.00;;;;;20.83;36.63;100554.97;4972581;28;45513;-59
2022/04/20 09:32:40;;;;;;;;;26.00;22.00;;;;;20.97;33.62;100542.81;4973444;28;45464;-56
2022/04/20 09:35:08;;;;;;;;;22.00;20.67;;;;;21.18;34.02;100543.31;4974911;28;45557;-59
2022/04/20 09:37:36;;;;;;;;;25.33;20.33;;;;;21.30;34.58;100541.25;4974235;28;46219;-58
2022/04/20 09:40:06;;;;;;;;;18.00;17.33;;;;;21.51;33.53;100525.53;4974619;27;45508;-55
2022/04/20 09:42:34;;;;;;;;;18.33;16.67;;;;;21.81;33.29;100536.91;4974554;28;45437;-57
2022/04/20 09:45:02;;;;;;;;;24.67;20.33;;;;;22.06;33.21;100530.66;4974865;27;45252;-59
2022/04/20 09:50:32;;;;;;;;;22.67;18.67;;;;;21.94;32.03;100512.94;4975144;28;45357;-57
2022/04/20 09:52:59;;;;;;;;;20.33;19.00;;;;;21.79;33.51;100529.78;4975029;28;45452;-56
2022/04/20 09:55:30;;;;;;;;;26.67;17.33;;;;;21.70;32.36;100516.34;4974411;28;45334;-57
2022/04/20 09:58:09;;;;;;;;;19.67;17.67;;;;;21.75;33.33;100531.13;4972276;28;46076;-57
2022/04/20 10:00:45;;;;;;;;;24.67;21.33;;;;;21.76;34.03;100521.16;4974224;28;45264;-56
2022/04/20 10:03:10;;;;;;;;;17.00;17.00;;;;;21.79;32.92;100518.97;4973074;28;45449;-56
2022/04/20 10:05:39;;;;;;;;;17.33;17.33;;;;;21.72;32.89;100517.88;4973530;28;45446;-58
2022/04/20 10:08:05;;;;;;;;;15.33;12.67;;;;;21.76;34.02;100521.16;4974356;28;46220;-57
2022/04/20 10:10:32;;;;;;;;;20.00;20.00;;;;;21.65;33.81;100499.75;4974084;28;45350;-57
2022/04/20 10:13:00;;;;;;;;;18.67;16.67;;;;;21.75;34.00;100519.44;4973622;28;45461;-58
2022/04/20 10:18:16;;;;;;;;;17.33;16.33;;;;;21.40;33.67;100520.38;5076320;27;45858;-58
2022/04/20 10:20:46;;;;;;;;;18.00;16.33;;;;;21.24;34.54;100517.53;5076383;27;45455;-58
2022/04/20 10:23:17;;;;;;;;;14.00;12.33;;;;;21.00;34.27;100513.59;5075097;27;45459;-56
2022/04/20 10:25:44;;;;;;;;;16.33;14.67;;;;;20.85;35.19;100516.00;5076810;27;45352;-57
2022/04/20 10:28:34;;;;;;;;;17.67;17.67;;;;;20.79;35.21;100504.94;5076310;27;45458;-57
2022/04/20 10:31:38;;;;;;;;;16.00;14.67;;;;;20.65;35.56;100498.22;5076314;27;45432;-58
2022/04/20 10:34:04;;;;;;;;;17.67;15.67;;;;;20.60;35.60;100514.03;5052383;27;45337;-57
2022/04/20 10:36:32;;;;;;;;;16.67;16.00;;;;;20.46;35.67;100504.59;5076647;27;45305;-58
2022/04/20 10:39:17;;;;;;;;;18.00;13.33;;;;;20.31;35.63;100506.06;5076313;27;45362;-59
2022/04/20 10:42:11;;;;;;;;;17.33;14.33;;;;;20.15;36.48;100495.91;5075976;28;45452;-58
2022/04/20 10:44:55;;;;;;;;;15.33;13.00;;;;;20.13;36.83;100510.56;5076271;27;45440;-57
2022/04/20 10:47:23;;;;;;;;;14.00;12.00;;;;;19.99;36.66;100507.34;5076533;27;45486;-58
2022/04/20 10:49:50;;;;;;;;;14.00;12.67;;;;;19.90;36.64;100494.75;5076474;28;45471;-58
2022/04/20 10:52:35;;;;;;;;;16.00;11.00;;;;;19.82;36.37;100488.41;5074925;28;45445;-56
2022/04/20 10:55:00;;;;;;;;;13.00;11.67;;;;;19.74;36.96;100487.28;5074775;28;45355;-57
2022/04/20 10:57:34;;;;;;;;;10.00;9.00;;;;;19.68;36.49;100470.84;5076280;27;45642;-56
2022/04/20 11:00:19;;;;;;;;;11.00;11.00;;;;;19.71;36.99;100484.03;5075083;28;45498;-57
2022/04/20 11:02:53;;;;;;;;;11.33;7.67;;;;;19.76;37.03;100476.34;5075901;27;45369;-57
2022/04/20 11:05:21;;;;;;;;;15.67;15.33;;;;;19.69;37.14;100462.59;5075203;28;45394;-56
2022/04/20 11:08:06;;;;;;;;;12.67;8.67;;;;;19.82;36.61;100456.03;5061661;27;45450;-57
2022/04/20 11:10:34;;;;;;;;;9.33;9.33;;;;;19.81;36.69;100465.13;5075961;27;46220;-57
2022/04/20 11:19:11;;;;;;;;;8.33;8.33;;;;;19.89;36.02;100457.97;5076808;27;45298;-57
2022/04/20 11:21:51;;;;;;;;;6.67;6.33;;;;;19.94;35.74;100449.44;5075758;27;45488;-58
2022/04/20 11:24:28;;;;;;;;;7.00;7.00;;;;;20.11;35.30;100462.13;5075780;27;45468;-56
2022/04/20 11:26:55;;;;;;;;;7.00;6.67;;;;;20.20;34.91;100446.88;5078570;27;45298;-57
2022/04/20 11:29:28;;;;;;;;;5.33;5.33;;;;;20.26;34.34;100451.66;5095502;27;45176;-57
2022/04/20 11:31:59;;;;;;;;;10.00;7.00;;;;;20.41;34.06;100454.69;4975568;28;45666;-56
2022/04/20 11:34:26;;;;;;;;;6.67;6.67;;;;;20.46;32.94;100455.97;4974860;28;45471;-57
2022/04/20 11:36:54;;;;;;;;;6.67;6.67;;;;;20.50;33.29;100457.34;4975367;28;45216;-57
2022/04/20 11:39:24;;;;;;;;;7.00;5.67;;;;;20.58;32.50;100457.44;4976676;28;45444;-58